sensor_id;sensor_type;location;lat;lon;timestamp;pressure;altitude;pressure_sealevel;temperature;humidity
9139;BME280;4604;48.616;9.548;2023-11-22T00:01:10;97133.38;;;7.05;100.00
9139;BME280;4604;48.616;9.548;2023-11-22T00:03:37;97137.75;;;7.04;100.00
9139;BME280;4604;48.616;9.548;2023-11-22T00:06:05;97139.69;;;7.02;100.00
9139;BME280;4604;48.616;9.548;2023-11-22T00:08:33;97139.84;;;7.12;100.00
9139;BME280;4604;48.616;9.548;2023-11-22T00:10:59;97138.50;;;7.06;100.00
9139;BME280;4604;48.616;9.548;2023-11-22T00:13:26;97132.66;;;7.03;100.00
9139;BME280;4604;48.616;9.548;2023-11-22T00:15:54;97133.41;;;6.92;100.00
9139;BME280;4604;48.616;9.548;2023-11-22T00:18:22;97132.34;;;6.95;100.00
9139;BME280;4604;48.616;9.548;2023-11-22T00:20:49;97129.84;;;6.93;100.00
9139;BME280;4604;48.616;9.548;2023-11-22T00:23:16;97138.81;;;7.02;100.00
9139;BME280;4604;48.616;9.548;2023-11-22T00:25:43;97125.34;;;6.95;100.00
9139;BME280;4604;48.616;9.548;2023-11-22T00:28:09;97135.38;;;7.01;100.00
9139;BME280;4604;48.616;9.548;2023-11-22T00:30:36;97136.69;;;7.07;100.00
9139;BME280;4604;48.616;9.548;2023-11-22T00:33:04;97130.47;;;6.97;100.00
9139;BME280;4604;48.616;9.548;2023-11-22T00:35:31;97128.06;;;6.94;100.00
9139;BME280;4604;48.616;9.548;2023-11-22T00:37:58;97127.56;;;7.13;100.00
9139;BME280;4604;48.616;9.548;2023-11-22T00:40:24;97144.41;;;6.97;100.00
9139;BME280;4604;48.616;9.548;2023-11-22T00:42:51;97155.97;;;7.19;100.00
9139;BME280;4604;48.616;9.548;2023-11-22T00:45:18;97139.69;;;7.02;100.00
9139;BME280;4604;48.616;9.548;2023-11-22T00:47:44;97132.97;;;6.98;100.00
9139;BME280;4604;48.616;9.548;2023-11-22T00:50:13;97155.19;;;7.05;100.00
9139;BME280;4604;48.616;9.548;2023-11-22T00:52:39;97162.91;;;6.96;100.00
9139;BME280;4604;48.616;9.548;2023-11-22T00:55:10;97164.22;;;6.77;100.00
9139;BME280;4604;48.616;9.548;2023-11-22T00:57:37;97165.22;;;6.88;100.00
9139;BME280;4604;48.616;9.548;2023-11-22T01:00:04;97173.56;;;6.81;100.00
9139;BME280;4604;48.616;9.548;2023-11-22T01:02:33;97176.22;;;6.69;100.00
9139;BME280;4604;48.616;9.548;2023-11-22T01:04:59;97181.97;;;6.74;100.00
9139;BME280;4604;48.616;9.548;2023-11-22T01:07:28;97147.09;;;6.48;100.00
9139;BME280;4604;48.616;9.548;2023-11-22T01:09:55;97177.09;;;6.56;100.00
9139;BME280;4604;48.616;9.548;2023-11-22T01:12:21;97192.88;;;6.68;100.00
9139;BME280;4604;48.616;9.548;2023-11-22T01:14:48;97192.38;;;6.62;100.00
9139;BME280;4604;48.616;9.548;2023-11-22T01:17:15;97191.94;;;6.56;100.00
9139;BME280;4604;48.616;9.548;2023-11-22T01:19:41;97187.25;;;6.48;100.00
9139;BME280;4604;48.616;9.548;2023-11-22T01:22:08;97194.31;;;6.35;100.00
9139;BME280;4604;48.616;9.548;2023-11-22T01:24:36;97191.34;;;6.27;100.00
9139;BME280;4604;48.616;9.548;2023-11-22T01:27:04;97203.75;;;6.25;100.00
9139;BME280;4604;48.616;9.548;2023-11-22T01:29:31;97211.41;;;6.28;100.00
9139;BME280;4604;48.616;9.548;2023-11-22T01:31:57;97201.75;;;6.28;100.00
9139;BME280;4604;48.616;9.548;2023-11-22T01:34:24;97207.81;;;6.29;100.00
9139;BME280;4604;48.616;9.548;2023-11-22T01:36:50;97210.75;;;6.11;100.00
9139;BME280;4604;48.616;9.548;2023-11-22T01:39:17;97214.66;;;6.18;100.00
9139;BME280;4604;48.616;9.548;2023-11-22T01:41:45;97213.06;;;6.03;100.00
9139;BME280;4604;48.616;9.548;2023-11-22T01:44:14;97217.47;;;6.03;100.00
9139;BME280;4604;48.616;9.548;2023-11-22T01:46:42;97226.00;;;5.92;100.00
9139;BME280;4604;48.616;9.548;2023-11-22T01:49:10;97233.59;;;5.96;100.00
9139;BME280;4604;48.616;9.548;2023-11-22T01:51:37;97234.09;;;5.89;100.00
9139;BME280;4604;48.616;9.548;2023-11-22T01:54:06;97249.38;;;5.82;100.00
9139;BME280;4604;48.616;9.548;2023-11-22T01:56:35;97246.44;;;5.74;100.00
9139;BME280;4604;48.616;9.548;2023-11-22T01:59:04;97253.75;;;5.69;100.00
9139;BME280;4604;48.616;9.548;2023-11-22T02:01:31;97250.16;;;5.70;100.00
9139;BME280;4604;48.616;9.548;2023-11-22T02:03:58;97259.28;;;5.64;100.00
9139;BME280;4604;48.616;9.548;2023-11-22T02:06:24;97251.44;;;5.64;100.00
9139;BME280;4604;48.616;9.548;2023-11-22T02:08:51;97260.09;;;5.52;100.00
9139;BME280;4604;48.616;9.548;2023-11-22T02:11:18;97262.22;;;5.32;100.00
9139;BME280;4604;48.616;9.548;2023-11-22T02:13:47;97266.69;;;5.57;100.00
9139;BME280;4604;48.616;9.548;2023-11-22T02:16:16;97259.38;;;5.63;100.00
9139;BME280;4604;48.616;9.548;2023-11-22T02:18:43;97264.66;;;5.48;100.00
9139;BME280;4604;48.616;9.548;2023-11-22T02:21:10;97270.84;;;5.47;100.00
9139;BME280;4604;48.616;9.548;2023-11-22T02:23:38;97273.91;;;5.54;100.00
9139;BME280;4604;48.616;9.548;2023-11-22T02:26:05;97276.78;;;5.36;100.00
9139;BME280;4604;48.616;9.548;2023-11-22T02:28:31;97280.06;;;5.53;100.00
9139;BME280;4604;48.616;9.548;2023-11-22T02:30:58;97277.66;;;5.50;100.00
9139;BME280;4604;48.616;9.548;2023-11-22T02:33:25;97285.91;;;5.44;100.00
9139;BME280;4604;48.616;9.548;2023-11-22T02:35:52;97286.88;;;5.55;100.00
9139;BME280;4604;48.616;9.548;2023-11-22T02:38:20;97289.72;;;5.52;100.00
9139;BME280;4604;48.616;9.548;2023-11-22T02:40:48;97292.41;;;5.24;100.00
9139;BME280;4604;48.616;9.548;2023-11-22T02:43:15;97287.63;;;5.30;100.00
9139;BME280;4604;48.616;9.548;2023-11-22T02:45:42;97293.44;;;5.48;100.00
9139;BME280;4604;48.616;9.548;2023-11-22T02:48:09;97305.38;;;5.40;100.00
9139;BME280;4604;48.616;9.548;2023-11-22T02:50:36;97311.94;;;5.18;100.00
9139;BME280;4604;48.616;9.548;2023-11-22T02:53:03;97322.88;;;5.25;100.00
9139;BME280;4604;48.616;9.548;2023-11-22T02:55:30;97323.28;;;5.04;100.00
9139;BME280;4604;48.616;9.548;2023-11-22T02:57:58;97319.06;;;5.02;100.00
9139;BME280;4604;48.616;9.548;2023-11-22T03:00:25;97320.16;;;5.12;100.00
9139;BME280;4604;48.616;9.548;2023-11-22T03:02:54;97316.16;;;5.06;100.00
9139;BME280;4604;48.616;9.548;2023-11-22T03:05:21;97314.38;;;5.07;100.00
9139;BME280;4604;48.616;9.548;2023-11-22T03:07:49;97314.31;;;5.08;100.00
9139;BME280;4604;48.616;9.548;2023-11-22T03:10:16;97310.09;;;5.06;100.00
9139;BME280;4604;48.616;9.548;2023-11-22T03:12:43;97322.25;;;4.92;100.00
9139;BME280;4604;48.616;9.548;2023-11-22T03:15:11;97328.22;;;4.80;100.00
9139;BME280;4604;48.616;9.548;2023-11-22T03:17:39;97335.22;;;4.65;100.00
9139;BME280;4604;48.616;9.548;2023-11-22T03:20:07;97339.16;;;4.72;100.00
9139;BME280;4604;48.616;9.548;2023-11-22T03:22:36;97350.19;;;4.63;100.00
9139;BME280;4604;48.616;9.548;2023-11-22T03:25:04;97360.22;;;4.41;100.00
9139;BME280;4604;48.616;9.548;2023-11-22T03:27:30;97352.06;;;4.31;100.00
9139;BME280;4604;48.616;9.548;2023-11-22T03:29:57;97354.22;;;4.24;100.00
9139;BME280;4604;48.616;9.548;2023-11-22T03:32:25;97332.16;;;4.14;100.00
9139;BME280;4604;48.616;9.548;2023-11-22T03:34:52;97349.41;;;4.17;100.00
9139;BME280;4604;48.616;9.548;2023-11-22T03:37:19;97358.59;;;3.94;100.00
9139;BME280;4604;48.616;9.548;2023-11-22T03:39:46;97359.16;;;4.15;100.00
9139;BME280;4604;48.616;9.548;2023-11-22T03:42:14;97360.81;;;4.16;100.00
9139;BME280;4604;48.616;9.548;2023-11-22T03:44:42;97367.84;;;3.99;100.00
9139;BME280;4604;48.616;9.548;2023-11-22T03:47:09;97367.25;;;3.94;100.00
9139;BME280;4604;48.616;9.548;2023-11-22T03:49:39;97390.22;;;3.73;100.00
9139;BME280;4604;48.616;9.548;2023-11-22T03:52:05;97393.47;;;3.77;100.00
9139;BME280;4604;48.616;9.548;2023-11-22T03:54:34;97396.34;;;3.72;100.00
9139;BME280;4604;48.616;9.548;2023-11-22T03:57:00;97394.31;;;3.77;100.00
9139;BME280;4604;48.616;9.548;2023-11-22T03:59:27;97398.25;;;4.00;100.00
9139;BME280;4604;48.616;9.548;2023-11-22T04:01:54;97395.72;;;3.99;100.00
9139;BME280;4604;48.616;9.548;2023-11-22T04:04:20;97414.69;;;3.86;100.00
9139;BME280;4604;48.616;9.548;2023-11-22T04:06:48;97427.50;;;3.91;100.00
9139;BME280;4604;48.616;9.548;2023-11-22T04:09:15;97429.78;;;3.81;100.00
9139;BME280;4604;48.616;9.548;2023-11-22T04:11:42;97432.38;;;3.81;100.00
9139;BME280;4604;48.616;9.548;2023-11-22T04:14:09;97428.50;;;3.73;100.00
9139;BME280;4604;48.616;9.548;2023-11-22T04:16:36;97413.72;;;3.73;100.00
9139;BME280;4604;48.616;9.548;2023-11-22T04:19:02;97440.31;;;3.64;100.00
9139;BME280;4604;48.616;9.548;2023-11-22T04:21:29;97451.75;;;3.77;100.00
9139;BME280;4604;48.616;9.548;2023-11-22T04:23:57;97454.78;;;3.70;100.00
9139;BME280;4604;48.616;9.548;2023-11-22T04:26:24;97457.41;;;3.70;100.00
9139;BME280;4604;48.616;9.548;2023-11-22T04:28:52;97461.38;;;3.61;100.00
9139;BME280;4604;48.616;9.548;2023-11-22T04:31:18;97465.47;;;3.49;100.00
9139;BME280;4604;48.616;9.548;2023-11-22T04:33:45;97440.19;;;3.34;100.00
9139;BME280;4604;48.616;9.548;2023-11-22T04:36:11;97467.06;;;3.52;100.00
9139;BME280;4604;48.616;9.548;2023-11-22T04:38:38;97464.00;;;3.43;100.00
9139;BME280;4604;48.616;9.548;2023-11-22T04:41:06;97480.19;;;3.50;100.00
9139;BME280;4604;48.616;9.548;2023-11-22T04:43:33;97485.28;;;3.36;100.00
9139;BME280;4604;48.616;9.548;2023-11-22T04:46:00;97483.78;;;3.32;100.00
9139;BME280;4604;48.616;9.548;2023-11-22T04:48:26;97483.31;;;3.24;100.00
9139;BME280;4604;48.616;9.548;2023-11-22T04:50:53;97484.34;;;3.21;100.00
9139;BME280;4604;48.616;9.548;2023-11-22T04:53:20;97481.06;;;3.33;100.00
9139;BME280;4604;48.616;9.548;2023-11-22T04:55:46;97482.91;;;3.31;100.00
9139;BME280;4604;48.616;9.548;2023-11-22T04:58:15;97458.00;;;3.10;100.00
9139;BME280;4604;48.616;9.548;2023-11-22T05:00:42;97463.88;;;3.13;100.00
9139;BME280;4604;48.616;9.548;2023-11-22T05:03:10;97503.38;;;3.39;100.00
9139;BME280;4604;48.616;9.548;2023-11-22T05:05:38;97427.28;;;3.15;100.00
9139;BME280;4604;48.616;9.548;2023-11-22T05:08:04;97509.06;;;3.47;100.00
9139;BME280;4604;48.616;9.548;2023-11-22T05:10:31;97469.31;;;3.09;100.00
9139;BME280;4604;48.616;9.548;2023-11-22T05:12:59;97461.44;;;3.10;100.00
9139;BME280;4604;48.616;9.548;2023-11-22T05:15:27;97513.22;;;3.34;100.00
9139;BME280;4604;48.616;9.548;2023-11-22T05:17:54;97513.31;;;3.32;100.00
9139;BME280;4604;48.616;9.548;2023-11-22T05:20:21;97513.16;;;3.35;100.00
9139;BME280;4604;48.616;9.548;2023-11-22T05:22:47;97514.19;;;3.49;100.00
9139;BME280;4604;48.616;9.548;2023-11-22T05:25:14;97509.53;;;3.38;100.00
9139;BME280;4604;48.616;9.548;2023-11-22T05:27:41;97527.19;;;3.33;100.00
9139;BME280;4604;48.616;9.548;2023-11-22T05:30:08;97521.38;;;3.28;100.00
9139;BME280;4604;48.616;9.548;2023-11-22T05:32:37;97531.75;;;3.29;100.00
9139;BME280;4604;48.616;9.548;2023-11-22T05:35:05;97535.44;;;3.25;100.00
9139;BME280;4604;48.616;9.548;2023-11-22T05:37:35;97480.41;;;2.79;100.00
9139;BME280;4604;48.616;9.548;2023-11-22T05:40:02;97536.44;;;3.05;100.00
9139;BME280;4604;48.616;9.548;2023-11-22T05:42:30;97529.75;;;3.17;100.00
9139;BME280;4604;48.616;9.548;2023-11-22T05:44:57;97531.38;;;3.19;100.00
9139;BME280;4604;48.616;9.548;2023-11-22T05:47:23;97545.88;;;3.08;100.00
9139;BME280;4604;48.616;9.548;2023-11-22T05:49:51;97540.44;;;3.12;100.00
9139;BME280;4604;48.616;9.548;2023-11-22T05:52:18;97543.94;;;3.11;100.00
9139;BME280;4604;48.616;9.548;2023-11-22T05:54:45;97536.69;;;3.00;100.00
9139;BME280;4604;48.616;9.548;2023-11-22T05:57:13;97543.88;;;3.13;100.00
9139;BME280;4604;48.616;9.548;2023-11-22T05:59:40;97553.00;;;2.87;100.00
9139;BME280;4604;48.616;9.548;2023-11-22T06:02:07;97565.09;;;2.88;100.00
9139;BME280;4604;48.616;9.548;2023-11-22T06:04:34;97568.69;;;2.85;100.00
9139;BME280;4604;48.616;9.548;2023-11-22T06:07:02;97567.63;;;2.89;100.00
9139;BME280;4604;48.616;9.548;2023-11-22T06:09:30;97568.47;;;2.90;100.00
9139;BME280;4604;48.616;9.548;2023-11-22T06:11:57;97575.47;;;2.89;100.00
9139;BME280;4604;48.616;9.548;2023-11-22T06:14:23;97579.53;;;2.95;100.00
9139;BME280;4604;48.616;9.548;2023-11-22T06:16:50;97566.09;;;2.85;100.00
9139;BME280;4604;48.616;9.548;2023-11-22T06:19:16;97598.31;;;3.02;100.00
9139;BME280;4604;48.616;9.548;2023-11-22T06:21:43;97577.84;;;2.94;100.00
9139;BME280;4604;48.616;9.548;2023-11-22T06:24:12;97590.31;;;2.87;100.00
9139;BME280;4604;48.616;9.548;2023-11-22T06:26:41;97604.25;;;3.05;100.00
9139;BME280;4604;48.616;9.548;2023-11-22T06:29:08;97596.19;;;3.10;100.00
9139;BME280;4604;48.616;9.548;2023-11-22T06:31:34;97610.91;;;3.11;100.00
9139;BME280;4604;48.616;9.548;2023-11-22T06:34:01;97616.06;;;3.12;100.00
9139;BME280;4604;48.616;9.548;2023-11-22T06:36:28;97611.91;;;3.26;100.00
9139;BME280;4604;48.616;9.548;2023-11-22T06:38:54;97609.47;;;3.22;100.00
9139;BME280;4604;48.616;9.548;2023-11-22T06:41:22;97617.72;;;3.13;100.00
9139;BME280;4604;48.616;9.548;2023-11-22T06:43:49;97632.16;;;3.20;100.00
9139;BME280;4604;48.616;9.548;2023-11-22T06:46:16;97641.44;;;3.09;100.00
9139;BME280;4604;48.616;9.548;2023-11-22T06:48:42;97640.75;;;3.05;100.00
9139;BME280;4604;48.616;9.548;2023-11-22T06:51:10;97636.81;;;3.14;100.00
9139;BME280;4604;48.616;9.548;2023-11-22T06:53:38;97634.09;;;3.34;100.00
9139;BME280;4604;48.616;9.548;2023-11-22T06:56:05;97646.50;;;3.12;100.00
9139;BME280;4604;48.616;9.548;2023-11-22T06:58:33;97648.66;;;3.21;100.00
9139;BME280;4604;48.616;9.548;2023-11-22T07:01:00;97650.03;;;3.11;100.00
9139;BME280;4604;48.616;9.548;2023-11-22T07:03:27;97642.81;;;2.98;100.00
9139;BME280;4604;48.616;9.548;2023-11-22T07:05:54;97651.19;;;3.22;100.00
9139;BME280;4604;48.616;9.548;2023-11-22T07:08:21;97651.19;;;3.05;100.00
9139;BME280;4604;48.616;9.548;2023-11-22T07:10:47;97652.69;;;3.09;100.00
9139;BME280;4604;48.616;9.548;2023-11-22T07:13:15;97652.19;;;3.03;100.00
9139;BME280;4604;48.616;9.548;2023-11-22T07:15:44;97662.25;;;2.91;100.00
9139;BME280;4604;48.616;9.548;2023-11-22T07:18:11;97659.22;;;3.00;100.00
9139;BME280;4604;48.616;9.548;2023-11-22T07:20:39;97659.69;;;3.26;100.00
9139;BME280;4604;48.616;9.548;2023-11-22T07:23:06;97655.31;;;3.27;100.00
9139;BME280;4604;48.616;9.548;2023-11-22T07:25:38;97653.19;;;3.17;100.00
9139;BME280;4604;48.616;9.548;2023-11-22T07:28:05;97655.19;;;3.12;100.00
9139;BME280;4604;48.616;9.548;2023-11-22T07:30:31;97650.69;;;2.97;100.00
9139;BME280;4604;48.616;9.548;2023-11-22T07:33:00;97663.00;;;3.12;100.00
9139;BME280;4604;48.616;9.548;2023-11-22T07:35:26;97677.38;;;3.02;100.00
9139;BME280;4604;48.616;9.548;2023-11-22T07:37:53;97685.94;;;3.23;100.00
9139;BME280;4604;48.616;9.548;2023-11-22T07:40:20;97693.09;;;3.19;100.00
9139;BME280;4604;48.616;9.548;2023-11-22T07:42:47;97695.94;;;2.96;100.00
9139;BME280;4604;48.616;9.548;2023-11-22T07:45:14;97698.84;;;3.07;100.00
9139;BME280;4604;48.616;9.548;2023-11-22T07:47:42;97711.44;;;2.99;100.00
9139;BME280;4604;48.616;9.548;2023-11-22T07:50:10;97708.56;;;3.22;100.00
9139;BME280;4604;48.616;9.548;2023-11-22T07:52:37;97709.44;;;3.04;100.00
9139;BME280;4604;48.616;9.548;2023-11-22T07:55:06;97712.38;;;2.98;100.00
9139;BME280;4604;48.616;9.548;2023-11-22T07:57:33;97718.19;;;3.03;100.00
9139;BME280;4604;48.616;9.548;2023-11-22T08:00:00;97725.09;;;3.04;100.00
9139;BME280;4604;48.616;9.548;2023-11-22T08:02:29;97727.22;;;2.96;100.00
9139;BME280;4604;48.616;9.548;2023-11-22T08:04:56;97705.75;;;2.91;100.00
9139;BME280;4604;48.616;9.548;2023-11-22T08:07:24;97724.78;;;2.93;100.00
9139;BME280;4604;48.616;9.548;2023-11-22T08:09:51;97722.06;;;2.94;100.00
9139;BME280;4604;48.616;9.548;2023-11-22T08:12:18;97733.00;;;3.03;100.00
9139;BME280;4604;48.616;9.548;2023-11-22T08:14:45;97722.78;;;2.98;100.00
9139;BME280;4604;48.616;9.548;2023-11-22T08:17:11;97729.72;;;3.16;100.00
9139;BME280;4604;48.616;9.548;2023-11-22T08:19:39;97732.13;;;3.21;100.00
9139;BME280;4604;48.616;9.548;2023-11-22T08:22:06;97701.16;;;2.96;100.00
9139;BME280;4604;48.616;9.548;2023-11-22T08:24:35;97703.84;;;3.12;100.00
9139;BME280;4604;48.616;9.548;2023-11-22T08:27:01;97714.91;;;3.17;100.00
9139;BME280;4604;48.616;9.548;2023-11-22T08:29:29;97722.97;;;3.12;100.00
9139;BME280;4604;48.616;9.548;2023-11-22T08:31:55;97727.72;;;3.21;100.00
9139;BME280;4604;48.616;9.548;2023-11-22T08:34:23;97717.91;;;3.27;100.00
9139;BME280;4604;48.616;9.548;2023-11-22T08:36:49;97731.50;;;3.16;100.00
9139;BME280;4604;48.616;9.548;2023-11-22T08:39:16;97733.94;;;3.19;100.00
9139;BME280;4604;48.616;9.548;2023-11-22T08:41:44;97729.47;;;3.40;100.00
9139;BME280;4604;48.616;9.548;2023-11-22T08:44:11;97723.28;;;3.24;100.00
9139;BME280;4604;48.616;9.548;2023-11-22T08:46:37;97740.91;;;3.37;100.00
9139;BME280;4604;48.616;9.548;2023-11-22T08:49:04;97741.19;;;3.49;100.00
9139;BME280;4604;48.616;9.548;2023-11-22T08:51:31;97744.59;;;3.51;100.00
9139;BME280;4604;48.616;9.548;2023-11-22T08:53:59;97732.47;;;3.32;100.00
9139;BME280;4604;48.616;9.548;2023-11-22T08:56:25;97743.97;;;3.46;100.00
9139;BME280;4604;48.616;9.548;2023-11-22T08:58:53;97736.25;;;3.44;100.00
9139;BME280;4604;48.616;9.548;2023-11-22T09:01:21;97733.97;;;3.36;100.00
9139;BME280;4604;48.616;9.548;2023-11-22T09:03:47;97742.13;;;3.48;100.00
9139;BME280;4604;48.616;9.548;2023-11-22T09:06:15;97739.59;;;3.46;100.00
9139;BME280;4604;48.616;9.548;2023-11-22T09:08:42;97735.63;;;3.56;100.00
9139;BME280;4604;48.616;9.548;2023-11-22T09:11:11;97741.47;;;3.61;100.00
9139;BME280;4604;48.616;9.548;2023-11-22T09:13:38;97727.47;;;3.80;99.88
9139;BME280;4604;48.616;9.548;2023-11-22T09:16:07;97731.53;;;3.68;99.73
9139;BME280;4604;48.616;9.548;2023-11-22T09:18:34;97732.88;;;3.77;99.23
9139;BME280;4604;48.616;9.548;2023-11-22T09:21:01;97728.88;;;3.52;100.00
9139;BME280;4604;48.616;9.548;2023-11-22T09:23:27;97741.31;;;3.64;100.00
9139;BME280;4604;48.616;9.548;2023-11-22T09:25:55;97741.69;;;3.57;100.00
9139;BME280;4604;48.616;9.548;2023-11-22T09:28:21;97733.91;;;3.55;98.70
9139;BME280;4604;48.616;9.548;2023-11-22T09:30:48;97743.47;;;3.56;100.00
9139;BME280;4604;48.616;9.548;2023-11-22T09:33:16;97740.16;;;3.70;97.98
9139;BME280;4604;48.616;9.548;2023-11-22T09:35:44;97740.63;;;3.61;99.18
9139;BME280;4604;48.616;9.548;2023-11-22T09:38:12;97742.06;;;3.67;98.85
9139;BME280;4604;48.616;9.548;2023-11-22T09:40:41;97745.91;;;3.59;99.29
9139;BME280;4604;48.616;9.548;2023-11-22T09:43:09;97738.38;;;3.53;99.58
9139;BME280;4604;48.616;9.548;2023-11-22T09:45:36;97751.13;;;3.59;100.00
9139;BME280;4604;48.616;9.548;2023-11-22T09:48:09;97745.75;;;3.80;98.27
9139;BME280;4604;48.616;9.548;2023-11-22T09:50:46;97732.88;;;3.59;95.45
9139;BME280;4604;48.616;9.548;2023-11-22T09:53:19;97754.34;;;3.64;96.19
9139;BME280;4604;48.616;9.548;2023-11-22T09:55:48;97760.56;;;3.62;97.20
9139;BME280;4604;48.616;9.548;2023-11-22T09:58:16;97761.66;;;3.75;97.01
9139;BME280;4604;48.616;9.548;2023-11-22T10:00:44;97771.34;;;3.91;95.19
9139;BME280;4604;48.616;9.548;2023-11-22T10:03:12;97774.94;;;3.71;96.87
9139;BME280;4604;48.616;9.548;2023-11-22T10:05:41;97782.91;;;3.68;99.74
9139;BME280;4604;48.616;9.548;2023-11-22T10:08:08;97789.66;;;3.54;100.00
9139;BME280;4604;48.616;9.548;2023-11-22T10:10:36;97786.22;;;3.54;100.00
9139;BME280;4604;48.616;9.548;2023-11-22T10:13:03;97784.88;;;3.45;100.00
9139;BME280;4604;48.616;9.548;2023-11-22T10:15:30;97783.91;;;3.29;100.00
9139;BME280;4604;48.616;9.548;2023-11-22T10:17:58;97790.16;;;3.43;100.00
9139;BME280;4604;48.616;9.548;2023-11-22T10:20:35;97786.25;;;3.35;100.00
9139;BME280;4604;48.616;9.548;2023-11-22T10:23:08;97794.38;;;3.46;100.00
9139;BME280;4604;48.616;9.548;2023-11-22T10:25:36;97808.78;;;3.72;100.00
9139;BME280;4604;48.616;9.548;2023-11-22T10:28:03;97798.34;;;3.72;100.00
9139;BME280;4604;48.616;9.548;2023-11-22T10:30:29;97801.00;;;3.53;100.00
9139;BME280;4604;48.616;9.548;2023-11-22T10:32:57;97797.09;;;3.45;100.00
9139;BME280;4604;48.616;9.548;2023-11-22T10:35:24;97802.53;;;3.40;100.00
9139;BME280;4604;48.616;9.548;2023-11-22T10:37:50;97794.13;;;3.33;100.00
9139;BME280;4604;48.616;9.548;2023-11-22T10:40:18;97797.78;;;3.48;100.00
9139;BME280;4604;48.616;9.548;2023-11-22T10:42:48;97797.97;;;3.62;100.00
9139;BME280;4604;48.616;9.548;2023-11-22T10:45:18;97798.09;;;3.42;100.00
9139;BME280;4604;48.616;9.548;2023-11-22T10:47:46;97815.53;;;3.59;100.00
9139;BME280;4604;48.616;9.548;2023-11-22T10:50:15;97814.63;;;3.41;100.00
9139;BME280;4604;48.616;9.548;2023-11-22T10:52:42;97814.25;;;3.49;99.93
9139;BME280;4604;48.616;9.548;2023-11-22T10:55:11;97812.75;;;3.45;100.00
9139;BME280;4604;48.616;9.548;2023-11-22T10:57:44;97813.94;;;3.37;100.00
9139;BME280;4604;48.616;9.548;2023-11-22T11:00:15;97813.81;;;3.40;100.00
9139;BME280;4604;48.616;9.548;2023-11-22T11:02:45;97802.38;;;3.24;100.00
9139;BME280;4604;48.616;9.548;2023-11-22T11:05:15;97802.59;;;3.38;100.00
9139;BME280;4604;48.616;9.548;2023-11-22T11:07:49;97816.19;;;3.45;100.00
9139;BME280;4604;48.616;9.548;2023-11-22T11:10:19;97823.09;;;3.46;100.00
9139;BME280;4604;48.616;9.548;2023-11-22T11:12:48;97815.19;;;3.48;100.00
9139;BME280;4604;48.616;9.548;2023-11-22T11:15:16;97810.81;;;3.48;100.00
9139;BME280;4604;48.616;9.548;2023-11-22T11:17:44;97813.53;;;3.47;98.98
9139;BME280;4604;48.616;9.548;2023-11-22T11:20:15;97829.19;;;3.47;100.00
9139;BME280;4604;48.616;9.548;2023-11-22T11:22:43;97832.03;;;3.59;98.34
9139;BME280;4604;48.616;9.548;2023-11-22T11:25:13;97791.75;;;3.29;100.00
9139;BME280;4604;48.616;9.548;2023-11-22T11:27:41;97816.56;;;3.37;100.00
9139;BME280;4604;48.616;9.548;2023-11-22T11:30:46;97816.34;;;3.42;100.00
9139;BME280;4604;48.616;9.548;2023-11-22T11:33:15;97808.72;;;3.37;100.00
9139;BME280;4604;48.616;9.548;2023-11-22T11:35:44;97807.53;;;3.45;100.00
9139;BME280;4604;48.616;9.548;2023-11-22T11:38:12;97791.03;;;3.44;100.00
9139;BME280;4604;48.616;9.548;2023-11-22T11:40:40;97789.50;;;3.57;100.00
9139;BME280;4604;48.616;9.548;2023-11-22T11:43:07;97796.56;;;3.55;100.00
9139;BME280;4604;48.616;9.548;2023-11-22T11:45:38;97788.09;;;3.50;100.00
9139;BME280;4604;48.616;9.548;2023-11-22T11:48:07;97800.78;;;3.58;100.00
9139;BME280;4604;48.616;9.548;2023-11-22T11:50:34;97802.28;;;3.63;100.00
9139;BME280;4604;48.616;9.548;2023-11-22T11:53:00;97816.56;;;3.74;97.94
9139;BME280;4604;48.616;9.548;2023-11-22T11:55:27;97828.78;;;3.73;94.43
9139;BME280;4604;48.616;9.548;2023-11-22T11:57:54;97831.03;;;3.62;94.40
9139;BME280;4604;48.616;9.548;2023-11-22T12:00:21;97829.47;;;3.77;90.64
9139;BME280;4604;48.616;9.548;2023-11-22T12:02:49;97835.50;;;3.60;90.58
9139;BME280;4604;48.616;9.548;2023-11-22T12:05:19;97827.22;;;3.69;90.66
9139;BME280;4604;48.616;9.548;2023-11-22T12:07:46;97825.00;;;3.61;89.42
9139;BME280;4604;48.616;9.548;2023-11-22T12:10:13;97852.00;;;3.60;89.12
9139;BME280;4604;48.616;9.548;2023-11-22T12:12:43;97849.91;;;3.50;91.08
9139;BME280;4604;48.616;9.548;2023-11-22T12:15:10;97871.88;;;3.63;89.86
9139;BME280;4604;48.616;9.548;2023-11-22T12:17:36;97869.16;;;3.47;90.26
9139;BME280;4604;48.616;9.548;2023-11-22T12:20:11;97858.72;;;3.47;92.08
9139;BME280;4604;48.616;9.548;2023-11-22T12:22:40;97871.00;;;3.45;90.75
9139;BME280;4604;48.616;9.548;2023-11-22T12:25:08;97866.34;;;3.52;89.47
9139;BME280;4604;48.616;9.548;2023-11-22T12:27:39;97875.44;;;3.43;85.89
9139;BME280;4604;48.616;9.548;2023-11-22T12:30:07;97882.25;;;3.27;89.02
9139;BME280;4604;48.616;9.548;2023-11-22T12:32:38;97882.22;;;3.28;89.25
9139;BME280;4604;48.616;9.548;2023-11-22T12:35:06;97882.25;;;3.27;89.46
9139;BME280;4604;48.616;9.548;2023-11-22T12:37:34;97893.50;;;3.48;87.46
9139;BME280;4604;48.616;9.548;2023-11-22T12:40:09;97898.34;;;3.36;87.39
9139;BME280;4604;48.616;9.548;2023-11-22T12:42:47;97904.00;;;3.27;89.67
9139;BME280;4604;48.616;9.548;2023-11-22T12:45:18;97899.69;;;3.26;90.52
9139;BME280;4604;48.616;9.548;2023-11-22T12:47:45;97895.88;;;3.33;90.39
9139;BME280;4604;48.616;9.548;2023-11-22T12:50:31;97884.19;;;3.42;88.15
9139;BME280;4604;48.616;9.548;2023-11-22T12:52:59;97882.47;;;3.41;85.87
9139;BME280;4604;48.616;9.548;2023-11-22T12:55:35;97863.22;;;3.43;85.64
9139;BME280;4604;48.616;9.548;2023-11-22T12:58:01;97874.03;;;3.36;86.73
9139;BME280;4604;48.616;9.548;2023-11-22T13:00:29;97880.88;;;3.19;88.29
9139;BME280;4604;48.616;9.548;2023-11-22T13:02:56;97875.00;;;3.14;89.34
9139;BME280;4604;48.616;9.548;2023-11-22T13:05:23;97857.09;;;3.07;90.52
9139;BME280;4604;48.616;9.548;2023-11-22T13:07:50;97867.53;;;3.07;91.05
9139;BME280;4604;48.616;9.548;2023-11-22T13:10:16;97876.44;;;3.03;90.94
9139;BME280;4604;48.616;9.548;2023-11-22T13:12:44;97875.28;;;3.08;89.87
9139;BME280;4604;48.616;9.548;2023-11-22T13:15:12;97880.09;;;3.17;89.19
9139;BME280;4604;48.616;9.548;2023-11-22T13:17:39;97880.09;;;3.17;89.78
9139;BME280;4604;48.616;9.548;2023-11-22T13:20:06;97882.56;;;3.20;91.10
9139;BME280;4604;48.616;9.548;2023-11-22T13:22:39;97873.53;;;3.09;91.26
9139;BME280;4604;48.616;9.548;2023-11-22T13:25:07;97880.16;;;3.16;90.28
9139;BME280;4604;48.616;9.548;2023-11-22T13:27:35;97891.31;;;3.19;90.93